sensor_id;sensor_type;location;lat;lon;timestamp;P1;durP1;ratioP1;P2;durP2;ratioP2
38264;SDS011;24062;47.480;8.768;2023-02-28T00:01:31;6.10;;;4.70;;
38264;SDS011;24062;47.480;8.768;2023-02-28T00:03:59;4.57;;;4.03;;
38264;SDS011;24062;47.480;8.768;2023-02-28T00:06:27;5.83;;;4.50;;
38264;SDS011;24062;47.480;8.768;2023-02-28T00:08:54;4.97;;;4.20;;
38264;SDS011;24062;47.480;8.768;2023-02-28T00:11:21;5.00;;;4.40;;
38264;SDS011;24062;47.480;8.768;2023-02-28T00:13:48;5.50;;;5.00;;
38264;SDS011;24062;47.480;8.768;2023-02-28T00:16:16;5.90;;;5.03;;
38264;SDS011;24062;47.480;8.768;2023-02-28T00:18:44;5.57;;;5.07;;
38264;SDS011;24062;47.480;8.768;2023-02-28T00:21:12;5.83;;;5.17;;
38264;SDS011;24062;47.480;8.768;2023-02-28T00:23:40;5.37;;;4.87;;
38264;SDS011;24062;47.480;8.768;2023-02-28T00:26:07;5.43;;;4.93;;
38264;SDS011;24062;47.480;8.768;2023-02-28T00:28:34;5.43;;;4.57;;
38264;SDS011;24062;47.480;8.768;2023-02-28T00:31:01;7.40;;;4.60;;
38264;SDS011;24062;47.480;8.768;2023-02-28T00:33:29;5.10;;;4.70;;
38264;SDS011;24062;47.480;8.768;2023-02-28T00:36:05;5.43;;;4.93;;
38264;SDS011;24062;47.480;8.768;2023-02-28T00:38:34;5.67;;;5.13;;
38264;SDS011;24062;47.480;8.768;2023-02-28T00:41:03;5.87;;;5.27;;
38264;SDS011;24062;47.480;8.768;2023-02-28T00:43:31;5.43;;;4.93;;
38264;SDS011;24062;47.480;8.768;2023-02-28T00:45:58;6.80;;;4.90;;
38264;SDS011;24062;47.480;8.768;2023-02-28T00:48:25;6.33;;;5.43;;
38264;SDS011;24062;47.480;8.768;2023-02-28T00:50:52;5.83;;;5.33;;
38264;SDS011;24062;47.480;8.768;2023-02-28T00:53:19;4.90;;;4.50;;
38264;SDS011;24062;47.480;8.768;2023-02-28T00:55:47;6.33;;;5.23;;
38264;SDS011;24062;47.480;8.768;2023-02-28T00:58:16;6.30;;;5.10;;
38264;SDS011;24062;47.480;8.768;2023-02-28T01:00:43;6.30;;;5.13;;
38264;SDS011;24062;47.480;8.768;2023-02-28T01:03:14;5.40;;;4.90;;
38264;SDS011;24062;47.480;8.768;2023-02-28T01:05:41;6.47;;;5.80;;
38264;SDS011;24062;47.480;8.768;2023-02-28T01:08:08;5.30;;;4.80;;
38264;SDS011;24062;47.480;8.768;2023-02-28T01:10:35;5.63;;;5.00;;
38264;SDS011;24062;47.480;8.768;2023-02-28T01:13:03;5.43;;;4.93;;
38264;SDS011;24062;47.480;8.768;2023-02-28T01:15:32;5.80;;;5.03;;
38264;SDS011;24062;47.480;8.768;2023-02-28T01:17:59;6.23;;;5.60;;
38264;SDS011;24062;47.480;8.768;2023-02-28T01:20:26;7.33;;;5.77;;
38264;SDS011;24062;47.480;8.768;2023-02-28T01:22:53;5.77;;;5.17;;
38264;SDS011;24062;47.480;8.768;2023-02-28T01:25:20;5.50;;;5.10;;
38264;SDS011;24062;47.480;8.768;2023-02-28T01:27:47;7.07;;;5.40;;
38264;SDS011;24062;47.480;8.768;2023-02-28T01:30:14;6.37;;;4.90;;
38264;SDS011;24062;47.480;8.768;2023-02-28T01:32:42;5.43;;;4.93;;
38264;SDS011;24062;47.480;8.768;2023-02-28T01:35:09;5.40;;;4.90;;
38264;SDS011;24062;47.480;8.768;2023-02-28T01:37:36;5.67;;;5.17;;
38264;SDS011;24062;47.480;8.768;2023-02-28T01:40:03;6.07;;;5.47;;
38264;SDS011;24062;47.480;8.768;2023-02-28T01:42:31;7.00;;;5.90;;
38264;SDS011;24062;47.480;8.768;2023-02-28T01:45:01;5.57;;;5.07;;
38264;SDS011;24062;47.480;8.768;2023-02-28T01:47:33;5.77;;;5.20;;
38264;SDS011;24062;47.480;8.768;2023-02-28T01:50:05;6.00;;;5.30;;
38264;SDS011;24062;47.480;8.768;2023-02-28T01:52:37;5.53;;;5.03;;
38264;SDS011;24062;47.480;8.768;2023-02-28T01:55:05;6.63;;;5.60;;
38264;SDS011;24062;47.480;8.768;2023-02-28T01:57:34;7.50;;;5.00;;
38264;SDS011;24062;47.480;8.768;2023-02-28T02:00:05;5.20;;;4.70;;
38264;SDS011;24062;47.480;8.768;2023-02-28T02:02:35;4.73;;;4.33;;
38264;SDS011;24062;47.480;8.768;2023-02-28T02:05:05;5.97;;;5.47;;
38264;SDS011;24062;47.480;8.768;2023-02-28T02:07:35;7.73;;;5.67;;
38264;SDS011;24062;47.480;8.768;2023-02-28T02:10:05;6.03;;;5.43;;
38264;SDS011;24062;47.480;8.768;2023-02-28T02:12:47;6.13;;;5.20;;
38264;SDS011;24062;47.480;8.768;2023-02-28T02:15:26;7.93;;;5.07;;
38264;SDS011;24062;47.480;8.768;2023-02-28T02:18:00;5.67;;;5.10;;
38264;SDS011;24062;47.480;8.768;2023-02-28T02:23:54;6.20;;;5.70;;
38264;SDS011;24062;47.480;8.768;2023-02-28T02:26:55;8.93;;;4.90;;
38264;SDS011;24062;47.480;8.768;2023-02-28T02:29:38;5.53;;;5.00;;
38264;SDS011;24062;47.480;8.768;2023-02-28T02:32:19;4.93;;;4.53;;
38264;SDS011;24062;47.480;8.768;2023-02-28T02:35:15;8.30;;;5.40;;
38264;SDS011;24062;47.480;8.768;2023-02-28T02:37:50;5.80;;;5.30;;
38264;SDS011;24062;47.480;8.768;2023-02-28T02:40:23;5.90;;;5.37;;
38264;SDS011;24062;47.480;8.768;2023-02-28T02:42:58;5.50;;;4.80;;
38264;SDS011;24062;47.480;8.768;2023-02-28T02:45:30;6.93;;;5.10;;
38264;SDS011;24062;47.480;8.768;2023-02-28T02:48:01;5.33;;;4.90;;
38264;SDS011;24062;47.480;8.768;2023-02-28T02:50:33;5.70;;;5.20;;
38264;SDS011;24062;47.480;8.768;2023-02-28T02:53:03;5.97;;;5.10;;
38264;SDS011;24062;47.480;8.768;2023-02-28T02:55:33;5.90;;;5.30;;
38264;SDS011;24062;47.480;8.768;2023-02-28T02:58:05;5.90;;;4.80;;
38264;SDS011;24062;47.480;8.768;2023-02-28T03:00:37;6.70;;;5.30;;
38264;SDS011;24062;47.480;8.768;2023-02-28T03:03:07;6.93;;;6.23;;
38264;SDS011;24062;47.480;8.768;2023-02-28T03:05:41;7.27;;;5.90;;
38264;SDS011;24062;47.480;8.768;2023-02-28T03:08:11;5.43;;;4.90;;
38264;SDS011;24062;47.480;8.768;2023-02-28T03:10:40;5.70;;;5.30;;
38264;SDS011;24062;47.480;8.768;2023-02-28T03:13:29;5.63;;;5.17;;
38264;SDS011;24062;47.480;8.768;2023-02-28T03:19:22;5.17;;;4.67;;
38264;SDS011;24062;47.480;8.768;2023-02-28T03:22:03;6.03;;;5.43;;
38264;SDS011;24062;47.480;8.768;2023-02-28T03:24:41;5.43;;;5.03;;
38264;SDS011;24062;47.480;8.768;2023-02-28T03:27:16;5.27;;;4.70;;
38264;SDS011;24062;47.480;8.768;2023-02-28T03:29:50;6.53;;;5.87;;
38264;SDS011;24062;47.480;8.768;2023-02-28T03:32:24;6.73;;;5.43;;
38264;SDS011;24062;47.480;8.768;2023-02-28T03:34:56;5.70;;;5.20;;
38264;SDS011;24062;47.480;8.768;2023-02-28T03:37:30;5.67;;;5.20;;
38264;SDS011;24062;47.480;8.768;2023-02-28T03:40:01;6.37;;;4.67;;
38264;SDS011;24062;47.480;8.768;2023-02-28T03:42:33;6.33;;;5.73;;
38264;SDS011;24062;47.480;8.768;2023-02-28T03:45:04;5.40;;;4.90;;
38264;SDS011;24062;47.480;8.768;2023-02-28T03:47:37;5.80;;;5.20;;
38264;SDS011;24062;47.480;8.768;2023-02-28T03:50:10;5.10;;;4.70;;
38264;SDS011;24062;47.480;8.768;2023-02-28T03:52:44;6.43;;;5.83;;
38264;SDS011;24062;47.480;8.768;2023-02-28T03:55:13;10.13;;;5.63;;
38264;SDS011;24062;47.480;8.768;2023-02-28T03:57:44;5.50;;;5.00;;
38264;SDS011;24062;47.480;8.768;2023-02-28T04:00:24;5.63;;;4.90;;
38264;SDS011;24062;47.480;8.768;2023-02-28T04:02:54;6.17;;;5.67;;
38264;SDS011;24062;47.480;8.768;2023-02-28T04:05:21;5.63;;;4.70;;
38264;SDS011;24062;47.480;8.768;2023-02-28T04:07:50;5.00;;;4.60;;
38264;SDS011;24062;47.480;8.768;2023-02-28T04:10:18;5.00;;;4.60;;
38264;SDS011;24062;47.480;8.768;2023-02-28T04:12:45;6.27;;;5.70;;
38264;SDS011;24062;47.480;8.768;2023-02-28T04:15:12;5.20;;;4.80;;
38264;SDS011;24062;47.480;8.768;2023-02-28T04:17:39;5.27;;;4.77;;
38264;SDS011;24062;47.480;8.768;2023-02-28T04:20:06;5.20;;;4.70;;
38264;SDS011;24062;47.480;8.768;2023-02-28T04:22:35;5.40;;;4.93;;
38264;SDS011;24062;47.480;8.768;2023-02-28T04:25:05;4.60;;;4.20;;
38264;SDS011;24062;47.480;8.768;2023-02-28T04:27:33;5.33;;;4.47;;
38264;SDS011;24062;47.480;8.768;2023-02-28T04:30:00;4.80;;;4.40;;
38264;SDS011;24062;47.480;8.768;2023-02-28T04:32:27;4.60;;;4.20;;
38264;SDS011;24062;47.480;8.768;2023-02-28T04:34:54;5.43;;;4.70;;
38264;SDS011;24062;47.480;8.768;2023-02-28T04:37:20;6.40;;;4.50;;
38264;SDS011;24062;47.480;8.768;2023-02-28T04:39:52;5.73;;;5.23;;
38264;SDS011;24062;47.480;8.768;2023-02-28T04:42:21;5.67;;;5.17;;
38264;SDS011;24062;47.480;8.768;2023-02-28T04:44:48;6.20;;;5.23;;
38264;SDS011;24062;47.480;8.768;2023-02-28T04:47:15;5.67;;;5.17;;
38264;SDS011;24062;47.480;8.768;2023-02-28T04:49:42;5.63;;;5.13;;
38264;SDS011;24062;47.480;8.768;2023-02-28T04:52:09;6.30;;;5.07;;
38264;SDS011;24062;47.480;8.768;2023-02-28T04:54:36;5.60;;;5.10;;
38264;SDS011;24062;47.480;8.768;2023-02-28T04:57:04;5.33;;;4.93;;
38264;SDS011;24062;47.480;8.768;2023-02-28T04:59:32;5.47;;;4.80;;
38264;SDS011;24062;47.480;8.768;2023-02-28T05:01:59;6.90;;;4.63;;
38264;SDS011;24062;47.480;8.768;2023-02-28T05:04:32;5.63;;;5.13;;
38264;SDS011;24062;47.480;8.768;2023-02-28T05:06:59;5.03;;;4.53;;
38264;SDS011;24062;47.480;8.768;2023-02-28T05:09:26;5.20;;;4.73;;
38264;SDS011;24062;47.480;8.768;2023-02-28T05:11:54;5.80;;;5.30;;
38264;SDS011;24062;47.480;8.768;2023-02-28T05:14:21;5.37;;;4.97;;
38264;SDS011;24062;47.480;8.768;2023-02-28T05:16:50;4.97;;;4.50;;
38264;SDS011;24062;47.480;8.768;2023-02-28T05:19:17;5.53;;;5.03;;
38264;SDS011;24062;47.480;8.768;2023-02-28T05:21:48;5.50;;;5.00;;
38264;SDS011;24062;47.480;8.768;2023-02-28T05:24:17;5.40;;;5.00;;
38264;SDS011;24062;47.480;8.768;2023-02-28T05:26:47;7.63;;;5.57;;
38264;SDS011;24062;47.480;8.768;2023-02-28T05:29:17;5.67;;;5.17;;
38264;SDS011;24062;47.480;8.768;2023-02-28T05:31:44;6.47;;;4.80;;
38264;SDS011;24062;47.480;8.768;2023-02-28T05:34:12;4.80;;;4.40;;
38264;SDS011;24062;47.480;8.768;2023-02-28T05:36:40;4.80;;;4.50;;
38264;SDS011;24062;47.480;8.768;2023-02-28T05:39:07;6.77;;;5.57;;
38264;SDS011;24062;47.480;8.768;2023-02-28T05:41:37;7.13;;;4.93;;
38264;SDS011;24062;47.480;8.768;2023-02-28T05:44:06;4.90;;;4.50;;
38264;SDS011;24062;47.480;8.768;2023-02-28T05:46:33;5.93;;;5.43;;
38264;SDS011;24062;47.480;8.768;2023-02-28T05:49:00;6.53;;;5.80;;
38264;SDS011;24062;47.480;8.768;2023-02-28T05:51:28;5.37;;;4.80;;
38264;SDS011;24062;47.480;8.768;2023-02-28T05:53:58;4.90;;;4.50;;
38264;SDS011;24062;47.480;8.768;2023-02-28T05:56:26;5.40;;;4.90;;
38264;SDS011;24062;47.480;8.768;2023-02-28T05:58:53;5.17;;;4.77;;
38264;SDS011;24062;47.480;8.768;2023-02-28T06:01:22;6.47;;;4.87;;
38264;SDS011;24062;47.480;8.768;2023-02-28T06:03:51;6.33;;;4.70;;
38264;SDS011;24062;47.480;8.768;2023-02-28T06:06:18;7.40;;;5.00;;
38264;SDS011;24062;47.480;8.768;2023-02-28T06:08:46;5.83;;;5.23;;
38264;SDS011;24062;47.480;8.768;2023-02-28T06:11:13;6.33;;;5.70;;
38264;SDS011;24062;47.480;8.768;2023-02-28T06:13:40;6.00;;;5.40;;
38264;SDS011;24062;47.480;8.768;2023-02-28T06:16:07;5.53;;;4.90;;
38264;SDS011;24062;47.480;8.768;2023-02-28T06:18:36;6.60;;;5.40;;
38264;SDS011;24062;47.480;8.768;2023-02-28T06:21:03;5.63;;;5.20;;
38264;SDS011;24062;47.480;8.768;2023-02-28T06:23:30;18.80;;;6.30;;
38264;SDS011;24062;47.480;8.768;2023-02-28T06:25:59;27.93;;;6.97;;
38264;SDS011;24062;47.480;8.768;2023-02-28T06:28:27;8.13;;;5.47;;
38264;SDS011;24062;47.480;8.768;2023-02-28T06:30:53;5.70;;;5.07;;
38264;SDS011;24062;47.480;8.768;2023-02-28T06:33:20;6.40;;;5.80;;
38264;SDS011;24062;47.480;8.768;2023-02-28T06:35:49;5.30;;;4.80;;
38264;SDS011;24062;47.480;8.768;2023-02-28T06:38:16;12.37;;;5.53;;
38264;SDS011;24062;47.480;8.768;2023-02-28T06:40:44;43.60;;;7.70;;
38264;SDS011;24062;47.480;8.768;2023-02-28T06:43:12;6.30;;;5.70;;
38264;SDS011;24062;47.480;8.768;2023-02-28T06:45:41;6.30;;;5.80;;
38264;SDS011;24062;47.480;8.768;2023-02-28T06:48:09;5.60;;;5.13;;
38264;SDS011;24062;47.480;8.768;2023-02-28T06:50:36;6.50;;;5.60;;
38264;SDS011;24062;47.480;8.768;2023-02-28T06:53:03;84.83;;;14.80;;
38264;SDS011;24062;47.480;8.768;2023-02-28T06:55:30;6.10;;;5.60;;
38264;SDS011;24062;47.480;8.768;2023-02-28T06:57:57;8.03;;;5.70;;
38264;SDS011;24062;47.480;8.768;2023-02-28T07:00:25;6.47;;;5.90;;
38264;SDS011;24062;47.480;8.768;2023-02-28T07:02:53;9.30;;;6.47;;
38264;SDS011;24062;47.480;8.768;2023-02-28T07:05:20;6.60;;;5.93;;
38264;SDS011;24062;47.480;8.768;2023-02-28T07:07:47;5.73;;;5.23;;
38264;SDS011;24062;47.480;8.768;2023-02-28T07:10:14;6.77;;;6.10;;
38264;SDS011;24062;47.480;8.768;2023-02-28T07:12:42;6.10;;;5.30;;
38264;SDS011;24062;47.480;8.768;2023-02-28T07:15:09;13.47;;;5.03;;
38264;SDS011;24062;47.480;8.768;2023-02-28T07:17:38;6.63;;;5.70;;
38264;SDS011;24062;47.480;8.768;2023-02-28T07:20:06;7.00;;;6.40;;
38264;SDS011;24062;47.480;8.768;2023-02-28T07:22:33;8.40;;;5.00;;
38264;SDS011;24062;47.480;8.768;2023-02-28T07:25:00;9.17;;;6.60;;
38264;SDS011;24062;47.480;8.768;2023-02-28T07:27:27;12.53;;;6.37;;
38264;SDS011;24062;47.480;8.768;2023-02-28T07:29:54;7.83;;;6.77;;
38264;SDS011;24062;47.480;8.768;2023-02-28T07:32:21;129.00;;;14.87;;
38264;SDS011;24062;47.480;8.768;2023-02-28T07:34:50;20.90;;;8.00;;
38264;SDS011;24062;47.480;8.768;2023-02-28T07:37:16;8.87;;;5.70;;
38264;SDS011;24062;47.480;8.768;2023-02-28T07:39:43;8.57;;;6.30;;
38264;SDS011;24062;47.480;8.768;2023-02-28T07:42:10;25.67;;;6.70;;
38264;SDS011;24062;47.480;8.768;2023-02-28T07:44:37;11.30;;;6.50;;
38264;SDS011;24062;47.480;8.768;2023-02-28T07:47:06;6.73;;;5.97;;
38264;SDS011;24062;47.480;8.768;2023-02-28T07:49:34;15.00;;;7.17;;
38264;SDS011;24062;47.480;8.768;2023-02-28T07:52:03;12.20;;;6.67;;
38264;SDS011;24062;47.480;8.768;2023-02-28T07:54:30;8.13;;;6.33;;
38264;SDS011;24062;47.480;8.768;2023-02-28T07:56:57;6.33;;;5.73;;
38264;SDS011;24062;47.480;8.768;2023-02-28T07:59:24;5.87;;;5.37;;
38264;SDS011;24062;47.480;8.768;2023-02-28T08:01:51;6.90;;;6.30;;
38264;SDS011;24062;47.480;8.768;2023-02-28T08:04:18;7.80;;;6.60;;
38264;SDS011;24062;47.480;8.768;2023-02-28T08:06:45;6.90;;;6.30;;
38264;SDS011;24062;47.480;8.768;2023-02-28T08:09:14;6.17;;;5.67;;
38264;SDS011;24062;47.480;8.768;2023-02-28T08:11:41;6.40;;;5.80;;
38264;SDS011;24062;47.480;8.768;2023-02-28T08:14:08;7.33;;;6.60;;
38264;SDS011;24062;47.480;8.768;2023-02-28T08:16:35;12.60;;;6.90;;
38264;SDS011;24062;47.480;8.768;2023-02-28T08:19:02;6.33;;;5.63;;
38264;SDS011;24062;47.480;8.768;2023-02-28T08:21:29;7.10;;;6.50;;
38264;SDS011;24062;47.480;8.768;2023-02-28T08:23:56;7.87;;;7.07;;
38264;SDS011;24062;47.480;8.768;2023-02-28T08:26:24;6.97;;;6.37;;
38264;SDS011;24062;47.480;8.768;2023-02-28T08:28:51;6.77;;;5.50;;
38264;SDS011;24062;47.480;8.768;2023-02-28T08:31:18;7.87;;;7.07;;
38264;SDS011;24062;47.480;8.768;2023-02-28T08:33:45;7.30;;;6.60;;
38264;SDS011;24062;47.480;8.768;2023-02-28T08:36:13;6.57;;;5.80;;
38264;SDS011;24062;47.480;8.768;2023-02-28T08:38:41;6.00;;;5.40;;
38264;SDS011;24062;47.480;8.768;2023-02-28T08:41:10;9.30;;;6.90;;
38264;SDS011;24062;47.480;8.768;2023-02-28T08:43:39;7.20;;;6.50;;
38264;SDS011;24062;47.480;8.768;2023-02-28T08:46:07;17.83;;;7.53;;
38264;SDS011;24062;47.480;8.768;2023-02-28T08:48:36;12.90;;;6.33;;
38264;SDS011;24062;47.480;8.768;2023-02-28T08:51:04;20.77;;;7.63;;
38264;SDS011;24062;47.480;8.768;2023-02-28T08:53:34;29.17;;;10.27;;
38264;SDS011;24062;47.480;8.768;2023-02-28T08:56:02;12.97;;;7.47;;
38264;SDS011;24062;47.480;8.768;2023-02-28T08:58:30;7.80;;;6.50;;
38264;SDS011;24062;47.480;8.768;2023-02-28T09:01:00;6.50;;;5.80;;
38264;SDS011;24062;47.480;8.768;2023-02-28T09:03:27;6.30;;;5.70;;
38264;SDS011;24062;47.480;8.768;2023-02-28T09:05:54;7.10;;;6.40;;
38264;SDS011;24062;47.480;8.768;2023-02-28T09:08:22;8.03;;;6.07;;
38264;SDS011;24062;47.480;8.768;2023-02-28T09:10:49;7.33;;;6.17;;
38264;SDS011;24062;47.480;8.768;2023-02-28T09:13:17;7.53;;;6.83;;
38264;SDS011;24062;47.480;8.768;2023-02-28T09:15:44;7.63;;;6.90;;
38264;SDS011;24062;47.480;8.768;2023-02-28T09:18:12;7.10;;;6.23;;
38264;SDS011;24062;47.480;8.768;2023-02-28T09:20:40;6.50;;;5.90;;
38264;SDS011;24062;47.480;8.768;2023-02-28T09:23:07;7.50;;;6.40;;
38264;SDS011;24062;47.480;8.768;2023-02-28T09:25:34;7.83;;;6.70;;
38264;SDS011;24062;47.480;8.768;2023-02-28T09:28:02;10.13;;;8.17;;
38264;SDS011;24062;47.480;8.768;2023-02-28T09:30:30;10.53;;;7.23;;
38264;SDS011;24062;47.480;8.768;2023-02-28T09:32:57;7.63;;;6.83;;
38264;SDS011;24062;47.480;8.768;2023-02-28T09:35:25;7.57;;;6.87;;
38264;SDS011;24062;47.480;8.768;2023-02-28T09:37:52;7.40;;;6.80;;
38264;SDS011;24062;47.480;8.768;2023-02-28T09:40:20;10.77;;;6.73;;
38264;SDS011;24062;47.480;8.768;2023-02-28T09:42:50;6.57;;;5.93;;
38264;SDS011;24062;47.480;8.768;2023-02-28T09:45:23;15.33;;;7.53;;
38264;SDS011;24062;47.480;8.768;2023-02-28T09:47:54;8.07;;;6.97;;
38264;SDS011;24062;47.480;8.768;2023-02-28T09:50:30;8.70;;;7.37;;
38264;SDS011;24062;47.480;8.768;2023-02-28T09:52:59;7.77;;;7.07;;
38264;SDS011;24062;47.480;8.768;2023-02-28T09:55:31;6.60;;;5.97;;
38264;SDS011;24062;47.480;8.768;2023-02-28T09:58:03;8.60;;;7.00;;
38264;SDS011;24062;47.480;8.768;2023-02-28T10:00:32;7.70;;;7.00;;
38264;SDS011;24062;47.480;8.768;2023-02-28T10:06:08;6.90;;;6.30;;
38264;SDS011;24062;47.480;8.768;2023-02-28T10:08:41;8.80;;;7.30;;
38264;SDS011;24062;47.480;8.768;2023-02-28T10:11:12;8.70;;;6.80;;
38264;SDS011;24062;47.480;8.768;2023-02-28T10:13:46;6.20;;;5.60;;
38264;SDS011;24062;47.480;8.768;2023-02-28T10:16:20;7.80;;;7.00;;
38264;SDS011;24062;47.480;8.768;2023-02-28T10:18:52;8.03;;;7.33;;
38264;SDS011;24062;47.480;8.768;2023-02-28T10:21:26;8.30;;;7.50;;
38264;SDS011;24062;47.480;8.768;2023-02-28T10:23:57;10.10;;;7.07;;
38264;SDS011;24062;47.480;8.768;2023-02-28T10:26:30;21.57;;;7.80;;
38264;SDS011;24062;47.480;8.768;2023-02-28T10:28:58;6.93;;;6.10;;
38264;SDS011;24062;47.480;8.768;2023-02-28T10:31:25;7.80;;;7.00;;
38264;SDS011;24062;47.480;8.768;2023-02-28T10:33:52;10.30;;;7.87;;
38264;SDS011;24062;47.480;8.768;2023-02-28T10:36:20;7.27;;;6.57;;
38264;SDS011;24062;47.480;8.768;2023-02-28T10:38:49;15.60;;;7.30;;
38264;SDS011;24062;47.480;8.768;2023-02-28T10:41:18;8.93;;;6.60;;
38264;SDS011;24062;47.480;8.768;2023-02-28T10:43:53;7.63;;;6.80;;
38264;SDS011;24062;47.480;8.768;2023-02-28T10:46:40;7.30;;;6.60;;
38264;SDS011;24062;47.480;8.768;2023-02-28T10:49:12;7.27;;;6.70;;
38264;SDS011;24062;47.480;8.768;2023-02-28T10:51:41;10.10;;;6.80;;
38264;SDS011;24062;47.480;8.768;2023-02-28T10:54:16;8.70;;;6.93;;
38264;SDS011;24062;47.480;8.768;2023-02-28T10:56:45;6.50;;;6.00;;
38264;SDS011;24062;47.480;8.768;2023-02-28T10:59:24;6.40;;;5.90;;
38264;SDS011;24062;47.480;8.768;2023-02-28T11:01:54;7.57;;;6.90;;
38264;SDS011;24062;47.480;8.768;2023-02-28T11:04:32;8.00;;;6.70;;
38264;SDS011;24062;47.480;8.768;2023-02-28T11:07:02;8.47;;;6.80;;
38264;SDS011;24062;47.480;8.768;2023-02-28T11:09:32;9.67;;;6.50;;
38264;SDS011;24062;47.480;8.768;2023-02-28T11:12:01;7.70;;;7.00;;
38264;SDS011;24062;47.480;8.768;2023-02-28T11:14:31;8.47;;;6.80;;
38264;SDS011;24062;47.480;8.768;2023-02-28T11:17:02;9.80;;;6.80;;
38264;SDS011;24062;47.480;8.768;2023-02-28T11:19:43;7.70;;;6.30;;
38264;SDS011;24062;47.480;8.768;2023-02-28T11:22:15;7.03;;;6.37;;
38264;SDS011;24062;47.480;8.768;2023-02-28T11:24:47;7.97;;;7.17;;
38264;SDS011;24062;47.480;8.768;2023-02-28T11:27:26;7.93;;;7.20;;
38264;SDS011;24062;47.480;8.768;2023-02-28T11:30:26;7.30;;;6.70;;
38264;SDS011;24062;47.480;8.768;2023-02-28T11:32:56;8.20;;;7.30;;
38264;SDS011;24062;47.480;8.768;2023-02-28T11:35:24;6.93;;;6.33;;
38264;SDS011;24062;47.480;8.768;2023-02-28T11:37:54;9.00;;;6.27;;
38264;SDS011;24062;47.480;8.768;2023-02-28T11:40:25;7.27;;;6.67;;
38264;SDS011;24062;47.480;8.768;2023-02-28T11:43:00;8.13;;;7.40;;
38264;SDS011;24062;47.480;8.768;2023-02-28T11:45:41;7.80;;;7.00;;
38264;SDS011;24062;47.480;8.768;2023-02-28T11:48:18;7.07;;;6.43;;
38264;SDS011;24062;47.480;8.768;2023-02-28T11:51:00;8.40;;;7.60;;
38264;SDS011;24062;47.480;8.768;2023-02-28T11:53:39;8.17;;;7.43;;
38264;SDS011;24062;47.480;8.768;2023-02-28T11:56:18;7.90;;;7.13;;
38264;SDS011;24062;47.480;8.768;2023-02-28T11:58:55;8.50;;;7.43;;
38264;SDS011;24062;47.480;8.768;2023-02-28T12:01:45;7.60;;;6.60;;
38264;SDS011;24062;47.480;8.768;2023-02-28T12:04:33;8.23;;;7.07;;
38264;SDS011;24062;47.480;8.768;2023-02-28T12:07:09;7.57;;;6.80;;
38264;SDS011;24062;47.480;8.768;2023-02-28T12:09:47;7.97;;;7.20;;
38264;SDS011;24062;47.480;8.768;2023-02-28T12:12:29;7.90;;;7.10;;
38264;SDS011;24062;47.480;8.768;2023-02-28T12:15:23;8.00;;;7.30;;
38264;SDS011;24062;47.480;8.768;2023-02-28T12:18:03;8.20;;;7.30;;
38264;SDS011;24062;47.480;8.768;2023-02-28T12:20:44;10.03;;;7.73;;
38264;SDS011;24062;47.480;8.768;2023-02-28T12:23:21;7.00;;;6.43;;
38264;SDS011;24062;47.480;8.768;2023-02-28T12:26:12;8.80;;;7.50;;
38264;SDS011;24062;47.480;8.768;2023-02-28T12:28:47;8.03;;;7.30;;
38264;SDS011;24062;47.480;8.768;2023-02-28T12:31:18;8.07;;;7.30;;
38264;SDS011;24062;47.480;8.768;2023-02-28T12:33:50;8.70;;;7.87;;
38264;SDS011;24062;47.480;8.768;2023-02-28T12:36:19;8.40;;;7.53;;
38264;SDS011;24062;47.480;8.768;2023-02-28T12:38:49;8.57;;;7.77;;
38264;SDS011;24062;47.480;8.768;2023-02-28T12:41:19;10.80;;;7.17;;
38264;SDS011;24062;47.480;8.768;2023-02-28T12:43:55;10.20;;;8.00;;
38264;SDS011;24062;47.480;8.768;2023-02-28T12:46:29;6.90;;;6.30;;
38264;SDS011;24062;47.480;8.768;2023-02-28T12:48:59;8.03;;;7.33;;
38264;SDS011;24062;47.480;8.768;2023-02-28T12:51:30;7.30;;;6.70;;
38264;SDS011;24062;47.480;8.768;2023-02-28T12:54:01;16.00;;;8.70;;
38264;SDS011;24062;47.480;8.768;2023-02-28T12:56:38;8.00;;;7.20;;
38264;SDS011;24062;47.480;8.768;2023-02-28T12:59:13;10.43;;;7.50;;
38264;SDS011;24062;47.480;8.768;2023-02-28T13:02:01;8.50;;;7.50;;
38264;SDS011;24062;47.480;8.768;2023-02-28T13:10:40;8.80;;;7.90;;
38264;SDS011;24062;47.480;8.768;2023-02-28T13:13:13;10.00;;;7.43;;
38264;SDS011;24062;47.480;8.768;2023-02-28T13:15:50;8.80;;;7.90;;
38264;SDS011;24062;47.480;8.768;2023-02-28T13:18:28;8.83;;;8.00;;
38264;SDS011;24062;47.480;8.768;2023-02-28T13:20:57;9.07;;;7.60;;
38264;SDS011;24062;47.480;8.768;2023-02-28T13:29:30;10.20;;;7.67;;
38264;SDS011;24062;47.480;8.768;2023-02-28T13:35:12;10.50;;;8.77;;
38264;SDS011;24062;47.480;8.768;2023-02-28T13:44:05;10.50;;;8.20;;
38264;SDS011;24062;47.480;8.768;2023-02-28T13:46:34;9.23;;;8.33;;
38264;SDS011;24062;47.480;8.768;2023-02-28T13:49:19;9.60;;;8.23;;
38264;SDS011;24062;47.480;8.768;2023-02-28T13:51:50;9.37;;;8.50;;
38264;SDS011;24062;47.480;8.768;2023-02-28T13:54:25;8.63;;;7.80;;
38264;SDS011;24062;47.480;8.768;2023-02-28T13:57:06;9.90;;;7.87;;
38264;SDS011;24062;47.480;8.768;2023-02-28T13:59:46;8.40;;;7.60;;
38264;SDS011;24062;47.480;8.768;2023-02-28T14:05:15;11.33;;;7.70;;
38264;SDS011;24062;47.480;8.768;2023-02-28T14:07:45;9.60;;;8.70;;
38264;SDS011;24062;47.480;8.768;2023-02-28T14:10:22;10.00;;;8.03;;
38264;SDS011;24062;47.480;8.768;2023-02-28T14:12:56;9.30;;;7.43;;
38264;SDS011;24062;47.480;8.768;2023-02-28T14:15:40;9.73;;;8.33;;
38264;SDS011;24062;47.480;8.768;2023-02-28T14:18:21;10.30;;;8.87;;
38264;SDS011;24062;47.480;8.768;2023-02-28T14:20:53;8.87;;;8.00;;
38264;SDS011;24062;47.480;8.768;2023-02-28T14:23:30;9.63;;;8.63;;
38264;SDS011;24062;47.480;8.768;2023-02-28T14:26:06;15.67;;;8.70;;
38264;SDS011;24062;47.480;8.768;2023-02-28T14:28:47;11.60;;;9.90;;
38264;SDS011;24062;47.480;8.768;2023-02-28T14:31:28;9.57;;;8.60;;
38264;SDS011;24062;47.480;8.768;2023-02-28T14:34:05;10.10;;;9.03;;
38264;SDS011;24062;47.480;8.768;2023-02-28T14:36:49;11.33;;;9.63;;
38264;SDS011;24062;47.480;8.768;2023-02-28T14:39:19;10.27;;;9.30;;
38264;SDS011;24062;47.480;8.768;2023-02-28T14:41:48;12.20;;;8.70;;
38264;SDS011;24062;47.480;8.768;2023-02-28T14:44:16;10.53;;;9.37;;
38264;SDS011;24062;47.480;8.768;2023-02-28T14:46:45;10.00;;;9.00;;
38264;SDS011;24062;47.480;8.768;2023-02-28T14:49:16;10.53;;;9.50;;
38264;SDS011;24062;47.480;8.768;2023-02-28T14:51:45;9.23;;;8.30;;
38264;SDS011;24062;47.480;8.768;2023-02-28T14:54:15;10.37;;;8.73;;
38264;SDS011;24062;47.480;8.768;2023-02-28T14:56:48;14.20;;;10.00;;
38264;SDS011;24062;47.480;8.768;2023-02-28T14:59:27;12.33;;;9.50;;
38264;SDS011;24062;47.480;8.768;2023-02-28T15:04:52;12.70;;;10.47;;
38264;SDS011;24062;47.480;8.768;2023-02-28T15:07:20;10.73;;;9.63;;
38264;SDS011;24062;47.480;8.768;2023-02-28T15:10:07;11.60;;;9.73;;
38264;SDS011;24062;47.480;8.768;2023-02-28T15:12:35;10.47;;;9.37;;
38264;SDS011;24062;47.480;8.768;2023-02-28T15:15:04;12.77;;;10.43;;
38264;SDS011;24062;47.480;8.768;2023-02-28T15:17:32;11.30;;;10.10;;
38264;SDS011;24062;47.480;8.768;2023-02-28T15:20:01;9.73;;;8.77;;
38264;SDS011;24062;47.480;8.768;2023-02-28T15:22:29;11.97;;;10.30;;
38264;SDS011;24062;47.480;8.768;2023-02-28T15:25:01;11.60;;;9.90;;
38264;SDS011;24062;47.480;8.768;2023-02-28T15:27:32;12.23;;;10.20;;
38264;SDS011;24062;47.480;8.768;2023-02-28T15:30:04;11.30;;;10.10;;
38264;SDS011;24062;47.480;8.768;2023-02-28T15:32:34;14.57;;;10.37;;
38264;SDS011;24062;47.480;8.768;2023-02-28T15:35:17;11.60;;;9.47;;
38264;SDS011;24062;47.480;8.768;2023-02-28T15:37:47;11.80;;;10.63;;
38264;SDS011;24062;47.480;8.768;2023-02-28T15:40:22;11.10;;;9.90;;
38264;SDS011;24062;47.480;8.768;2023-02-28T15:43:00;16.13;;;10.53;;
38264;SDS011;24062;47.480;8.768;2023-02-28T15:45:35;11.10;;;9.97;;